< < Back
Terminal Aerodrome Forecast


Current Version              Previous Versions:   1  2  3  4  5  6  7  8  9  

Terminal Aerodrome Forecast

415
FTUS42 KILM 200500
TAFILM
TAF
KILM 200531Z 2006/2106 04009KT P6SM BKN250
     FM201600 05011G18KT P6SM VCSH SCT030 OVC250
     FM201800 05010G17KT P6SM VCSH BKN020 BKN100
     FM201900 05009G16KT P6SM OVC020 PROB30 2019/2021 P6SM -RA
      OVC050
     FM202100 05009KT P6SM VCSH SCT020 BKN100=

Latest METAR

147
SAUS70 KWBC 201600 RRD
MTRILM
METAR KILM 201553Z 02012KT 10SM SCT070 BKN090 24/19 A3010 RMK AO2 SLP191
T02440194


USA.gov is the U.S. government's official web portal to all federal, state and local government web resources and services.